sensor_id;sensor_type;location;lat;lon;timestamp;noise_LAeq;noise_LA_min;noise_LA_max;noise_LA01;noise_LA95
74234;Laerm;62591;55.764;37.718;2023-11-19T00:01:51;36.88;30.73;46.85;;
74234;Laerm;62591;55.764;37.718;2023-11-19T00:04:20;40.00;31.71;51.79;;
74234;Laerm;62591;55.764;37.718;2023-11-19T00:06:51;37.83;31.85;47.46;;
74234;Laerm;62591;55.764;37.718;2023-11-19T00:09:19;36.50;31.00;48.98;;
74234;Laerm;62591;55.764;37.718;2023-11-19T00:11:48;39.53;31.61;49.77;;
74234;Laerm;62591;55.764;37.718;2023-11-19T00:14:20;34.13;30.37;42.20;;
74234;Laerm;62591;55.764;37.718;2023-11-19T00:16:50;38.07;30.81;48.07;;
74234;Laerm;62591;55.764;37.718;2023-11-19T00:19:20;36.08;31.29;48.78;;
74234;Laerm;62591;55.764;37.718;2023-11-19T00:21:54;38.24;31.12;47.96;;
74234;Laerm;62591;55.764;37.718;2023-11-19T00:24:22;38.60;30.97;48.52;;
74234;Laerm;62591;55.764;37.718;2023-11-19T00:26:51;37.27;30.23;49.92;;
74234;Laerm;62591;55.764;37.718;2023-11-19T00:29:20;39.38;30.70;50.81;;
74234;Laerm;62591;55.764;37.718;2023-11-19T00:31:49;36.74;30.58;47.20;;
74234;Laerm;62591;55.764;37.718;2023-11-19T00:34:18;40.13;31.38;49.42;;
74234;Laerm;62591;55.764;37.718;2023-11-19T00:36:51;34.45;30.54;41.77;;
74234;Laerm;62591;55.764;37.718;2023-11-19T00:39:21;39.74;30.85;50.55;;
74234;Laerm;62591;55.764;37.718;2023-11-19T00:41:50;38.07;30.61;49.88;;
74234;Laerm;62591;55.764;37.718;2023-11-19T00:44:19;35.67;30.53;44.58;;
74234;Laerm;62591;55.764;37.718;2023-11-19T00:46:48;34.51;30.35;42.85;;
74234;Laerm;62591;55.764;37.718;2023-11-19T00:49:17;36.33;30.38;47.94;;
74234;Laerm;62591;55.764;37.718;2023-11-19T00:51:47;33.80;30.90;42.42;;
74234;Laerm;62591;55.764;37.718;2023-11-19T00:54:16;37.98;31.85;48.57;;
74234;Laerm;62591;55.764;37.718;2023-11-19T00:56:47;38.05;31.67;49.23;;
74234;Laerm;62591;55.764;37.718;2023-11-19T00:59:16;38.57;31.76;49.56;;
74234;Laerm;62591;55.764;37.718;2023-11-19T01:01:44;37.28;31.94;48.63;;
74234;Laerm;62591;55.764;37.718;2023-11-19T01:04:15;36.44;31.20;58.22;;
74234;Laerm;62591;55.764;37.718;2023-11-19T01:06:43;44.24;30.86;53.44;;
74234;Laerm;62591;55.764;37.718;2023-11-19T01:09:15;37.32;31.63;48.59;;
74234;Laerm;62591;55.764;37.718;2023-11-19T01:11:44;34.97;32.65;41.26;;
74234;Laerm;62591;55.764;37.718;2023-11-19T01:14:17;40.15;32.75;55.54;;
74234;Laerm;62591;55.764;37.718;2023-11-19T01:16:49;41.17;32.94;50.96;;
74234;Laerm;62591;55.764;37.718;2023-11-19T01:19:19;39.66;33.42;49.82;;
74234;Laerm;62591;55.764;37.718;2023-11-19T01:21:49;38.97;32.79;50.58;;
74234;Laerm;62591;55.764;37.718;2023-11-19T01:24:17;36.27;32.70;43.55;;
74234;Laerm;62591;55.764;37.718;2023-11-19T01:26:47;48.81;33.33;58.99;;
74234;Laerm;62591;55.764;37.718;2023-11-19T01:29:20;39.75;32.15;54.47;;
74234;Laerm;62591;55.764;37.718;2023-11-19T01:31:49;45.53;31.26;57.44;;
74234;Laerm;62591;55.764;37.718;2023-11-19T01:34:19;37.28;31.82;47.55;;
74234;Laerm;62591;55.764;37.718;2023-11-19T01:36:48;35.97;30.84;47.14;;
74234;Laerm;62591;55.764;37.718;2023-11-19T01:39:17;43.21;31.29;56.33;;
74234;Laerm;62591;55.764;37.718;2023-11-19T01:41:47;42.62;30.87;53.54;;
74234;Laerm;62591;55.764;37.718;2023-11-19T01:44:16;39.45;33.06;47.37;;
74234;Laerm;62591;55.764;37.718;2023-11-19T01:46:47;45.23;33.57;54.71;;
74234;Laerm;62591;55.764;37.718;2023-11-19T01:49:17;36.15;31.94;43.00;;
74234;Laerm;62591;55.764;37.718;2023-11-19T01:51:48;44.60;33.14;56.27;;
74234;Laerm;62591;55.764;37.718;2023-11-19T01:54:17;43.56;32.65;59.09;;
74234;Laerm;62591;55.764;37.718;2023-11-19T01:56:46;42.69;33.92;51.22;;
74234;Laerm;62591;55.764;37.718;2023-11-19T01:59:16;40.92;33.06;51.08;;
74234;Laerm;62591;55.764;37.718;2023-11-19T02:01:46;37.99;32.56;53.99;;
74234;Laerm;62591;55.764;37.718;2023-11-19T02:04:25;40.14;32.48;50.02;;
74234;Laerm;62591;55.764;37.718;2023-11-19T02:06:56;38.83;32.57;59.75;;
74234;Laerm;62591;55.764;37.718;2023-11-19T02:09:26;49.83;34.09;60.87;;
74234;Laerm;62591;55.764;37.718;2023-11-19T02:11:55;39.22;32.52;55.08;;
74234;Laerm;62591;55.764;37.718;2023-11-19T02:14:25;36.57;32.20;47.59;;
74234;Laerm;62591;55.764;37.718;2023-11-19T02:16:57;43.75;32.97;53.16;;
74234;Laerm;62591;55.764;37.718;2023-11-19T02:19:26;43.40;32.84;50.75;;
74234;Laerm;62591;55.764;37.718;2023-11-19T02:22:15;39.70;32.71;52.43;;
74234;Laerm;62591;55.764;37.718;2023-11-19T02:24:44;40.34;32.54;49.57;;
74234;Laerm;62591;55.764;37.718;2023-11-19T02:27:17;44.71;33.28;59.41;;
74234;Laerm;62591;55.764;37.718;2023-11-19T02:29:49;45.49;33.07;57.29;;
74234;Laerm;62591;55.764;37.718;2023-11-19T02:32:19;45.20;33.38;57.51;;
74234;Laerm;62591;55.764;37.718;2023-11-19T02:34:48;44.55;32.17;58.78;;
74234;Laerm;62591;55.764;37.718;2023-11-19T02:37:16;41.70;32.74;50.61;;
74234;Laerm;62591;55.764;37.718;2023-11-19T02:39:46;40.60;33.17;51.50;;
74234;Laerm;62591;55.764;37.718;2023-11-19T02:42:14;43.65;34.29;53.01;;
74234;Laerm;62591;55.764;37.718;2023-11-19T02:44:44;43.24;33.05;56.18;;
74234;Laerm;62591;55.764;37.718;2023-11-19T02:47:14;44.70;34.16;52.79;;
74234;Laerm;62591;55.764;37.718;2023-11-19T02:49:43;43.38;34.00;52.25;;
74234;Laerm;62591;55.764;37.718;2023-11-19T02:52:11;40.94;33.42;52.32;;
74234;Laerm;62591;55.764;37.718;2023-11-19T02:54:43;42.32;32.63;52.44;;
74234;Laerm;62591;55.764;37.718;2023-11-19T02:57:12;41.32;33.10;50.50;;
74234;Laerm;62591;55.764;37.718;2023-11-19T02:59:43;41.54;32.78;51.06;;
74234;Laerm;62591;55.764;37.718;2023-11-19T03:02:13;44.59;34.60;53.34;;
74234;Laerm;62591;55.764;37.718;2023-11-19T03:04:44;42.39;32.25;51.49;;
74234;Laerm;62591;55.764;37.718;2023-11-19T03:07:13;43.62;33.62;54.60;;
74234;Laerm;62591;55.764;37.718;2023-11-19T03:09:42;42.17;32.71;71.63;;
74234;Laerm;62591;55.764;37.718;2023-11-19T03:12:11;47.84;34.81;58.34;;
74234;Laerm;62591;55.764;37.718;2023-11-19T03:14:40;42.37;33.50;53.07;;
74234;Laerm;62591;55.764;37.718;2023-11-19T03:17:09;42.73;33.06;53.92;;
74234;Laerm;62591;55.764;37.718;2023-11-19T03:19:40;49.08;34.39;71.25;;
74234;Laerm;62591;55.764;37.718;2023-11-19T03:22:09;44.78;35.27;56.53;;
74234;Laerm;62591;55.764;37.718;2023-11-19T03:24:39;39.94;33.22;53.08;;
74234;Laerm;62591;55.764;37.718;2023-11-19T03:27:08;42.85;33.79;53.81;;
74234;Laerm;62591;55.764;37.718;2023-11-19T03:29:37;42.38;33.51;56.14;;
74234;Laerm;62591;55.764;37.718;2023-11-19T03:32:08;46.44;34.86;60.60;;
74234;Laerm;62591;55.764;37.718;2023-11-19T03:34:36;47.90;34.58;63.16;;
74234;Laerm;62591;55.764;37.718;2023-11-19T03:37:07;45.53;35.21;53.77;;
74234;Laerm;62591;55.764;37.718;2023-11-19T03:39:36;44.25;32.98;55.72;;
74234;Laerm;62591;55.764;37.718;2023-11-19T03:42:04;42.65;35.21;52.04;;
74234;Laerm;62591;55.764;37.718;2023-11-19T03:44:33;46.47;34.04;58.53;;
74234;Laerm;62591;55.764;37.718;2023-11-19T03:47:02;43.42;34.35;53.08;;
74234;Laerm;62591;55.764;37.718;2023-11-19T03:49:31;38.95;33.42;47.18;;
74234;Laerm;62591;55.764;37.718;2023-11-19T03:52:00;43.61;34.33;62.10;;
74234;Laerm;62591;55.764;37.718;2023-11-19T03:54:30;46.22;34.41;57.62;;
74234;Laerm;62591;55.764;37.718;2023-11-19T03:57:00;47.71;34.84;58.86;;
74234;Laerm;62591;55.764;37.718;2023-11-19T03:59:30;47.02;33.54;58.68;;
74234;Laerm;62591;55.764;37.718;2023-11-19T04:02:00;43.39;34.31;50.92;;
74234;Laerm;62591;55.764;37.718;2023-11-19T04:04:30;43.82;33.79;52.96;;
74234;Laerm;62591;55.764;37.718;2023-11-19T04:07:00;44.63;34.81;56.36;;
74234;Laerm;62591;55.764;37.718;2023-11-19T04:09:31;46.48;33.54;58.72;;
74234;Laerm;62591;55.764;37.718;2023-11-19T04:12:01;44.97;35.06;55.02;;
74234;Laerm;62591;55.764;37.718;2023-11-19T04:14:30;46.24;34.41;59.37;;
74234;Laerm;62591;55.764;37.718;2023-11-19T04:16:58;49.86;36.13;67.66;;
74234;Laerm;62591;55.764;37.718;2023-11-19T04:19:27;49.29;36.13;68.24;;
74234;Laerm;62591;55.764;37.718;2023-11-19T04:21:56;47.53;37.07;57.04;;
74234;Laerm;62591;55.764;37.718;2023-11-19T04:24:25;45.62;34.42;55.76;;
74234;Laerm;62591;55.764;37.718;2023-11-19T04:26:55;45.16;35.88;54.64;;
74234;Laerm;62591;55.764;37.718;2023-11-19T04:29:24;45.05;34.43;56.96;;
74234;Laerm;62591;55.764;37.718;2023-11-19T04:31:53;48.77;36.78;60.70;;
74234;Laerm;62591;55.764;37.718;2023-11-19T04:34:22;42.81;35.41;57.42;;
74234;Laerm;62591;55.764;37.718;2023-11-19T04:36:51;42.55;37.88;53.74;;
74234;Laerm;62591;55.764;37.718;2023-11-19T04:39:19;45.13;36.77;58.76;;
74234;Laerm;62591;55.764;37.718;2023-11-19T04:41:49;46.87;38.47;62.56;;
74234;Laerm;62591;55.764;37.718;2023-11-19T04:44:20;49.77;37.49;63.05;;
74234;Laerm;62591;55.764;37.718;2023-11-19T04:46:50;48.04;37.71;58.87;;
74234;Laerm;62591;55.764;37.718;2023-11-19T04:49:19;43.77;36.50;55.48;;
74234;Laerm;62591;55.764;37.718;2023-11-19T04:51:48;50.73;37.82;61.45;;
74234;Laerm;62591;55.764;37.718;2023-11-19T04:54:18;45.31;38.37;52.99;;
74234;Laerm;62591;55.764;37.718;2023-11-19T04:56:47;47.29;37.80;57.70;;
74234;Laerm;62591;55.764;37.718;2023-11-19T04:59:16;41.60;37.55;51.08;;
74234;Laerm;62591;55.764;37.718;2023-11-19T05:01:48;48.54;36.14;58.07;;
74234;Laerm;62591;55.764;37.718;2023-11-19T05:04:17;49.90;40.21;59.05;;
74234;Laerm;62591;55.764;37.718;2023-11-19T05:06:47;49.97;38.38;75.17;;
74234;Laerm;62591;55.764;37.718;2023-11-19T05:09:15;49.33;38.83;65.01;;
74234;Laerm;62591;55.764;37.718;2023-11-19T05:11:45;44.04;37.85;55.76;;
74234;Laerm;62591;55.764;37.718;2023-11-19T05:14:17;48.05;38.78;62.84;;
74234;Laerm;62591;55.764;37.718;2023-11-19T05:16:45;45.16;37.35;58.60;;
74234;Laerm;62591;55.764;37.718;2023-11-19T05:19:16;47.17;37.07;63.50;;
74234;Laerm;62591;55.764;37.718;2023-11-19T05:21:47;45.05;38.32;56.72;;
74234;Laerm;62591;55.764;37.718;2023-11-19T05:24:19;48.74;39.69;59.34;;
74234;Laerm;62591;55.764;37.718;2023-11-19T05:26:48;51.28;44.45;59.66;;
74234;Laerm;62591;55.764;37.718;2023-11-19T05:29:18;48.62;41.67;66.83;;
74234;Laerm;62591;55.764;37.718;2023-11-19T05:31:47;48.91;41.66;67.04;;
74234;Laerm;62591;55.764;37.718;2023-11-19T05:34:17;48.08;40.20;66.20;;
74234;Laerm;62591;55.764;37.718;2023-11-19T05:36:45;46.23;37.40;62.67;;
74234;Laerm;62591;55.764;37.718;2023-11-19T05:39:14;50.77;43.46;65.19;;
74234;Laerm;62591;55.764;37.718;2023-11-19T05:41:46;50.59;45.68;56.15;;
74234;Laerm;62591;55.764;37.718;2023-11-19T05:44:15;51.00;44.50;65.10;;
74234;Laerm;62591;55.764;37.718;2023-11-19T05:46:43;50.78;43.66;70.97;;
74234;Laerm;62591;55.764;37.718;2023-11-19T05:49:12;52.29;46.78;71.96;;
74234;Laerm;62591;55.764;37.718;2023-11-19T05:51:42;53.12;47.44;68.37;;
74234;Laerm;62591;55.764;37.718;2023-11-19T05:54:11;53.62;49.61;68.57;;
74234;Laerm;62591;55.764;37.718;2023-11-19T05:56:40;50.44;43.40;64.49;;
74234;Laerm;62591;55.764;37.718;2023-11-19T05:59:09;47.96;40.56;65.45;;
74234;Laerm;62591;55.764;37.718;2023-11-19T06:01:43;48.80;39.91;61.71;;
74234;Laerm;62591;55.764;37.718;2023-11-19T06:04:12;45.28;38.31;56.09;;
74234;Laerm;62591;55.764;37.718;2023-11-19T06:06:40;46.54;39.24;56.36;;
74234;Laerm;62591;55.764;37.718;2023-11-19T06:09:10;47.78;37.71;55.92;;
74234;Laerm;62591;55.764;37.718;2023-11-19T06:11:41;47.26;38.61;58.82;;
74234;Laerm;62591;55.764;37.718;2023-11-19T06:14:11;47.12;38.73;56.39;;
74234;Laerm;62591;55.764;37.718;2023-11-19T06:16:40;45.58;37.84;57.85;;
74234;Laerm;62591;55.764;37.718;2023-11-19T06:19:09;47.56;38.08;73.33;;
74234;Laerm;62591;55.764;37.718;2023-11-19T06:21:39;48.48;40.96;59.32;;
74234;Laerm;62591;55.764;37.718;2023-11-19T06:24:08;50.46;39.50;61.11;;
74234;Laerm;62591;55.764;37.718;2023-11-19T06:26:38;48.78;38.45;65.98;;
74234;Laerm;62591;55.764;37.718;2023-11-19T06:29:07;47.20;37.26;64.10;;
74234;Laerm;62591;55.764;37.718;2023-11-19T06:31:36;46.21;37.63;56.01;;
74234;Laerm;62591;55.764;37.718;2023-11-19T06:34:04;47.02;39.59;62.05;;
74234;Laerm;62591;55.764;37.718;2023-11-19T06:36:33;45.49;38.52;59.68;;
74234;Laerm;62591;55.764;37.718;2023-11-19T06:39:02;47.13;38.50;55.62;;
74234;Laerm;62591;55.764;37.718;2023-11-19T06:41:31;47.70;41.27;55.78;;
74234;Laerm;62591;55.764;37.718;2023-11-19T06:44:01;47.76;40.85;58.86;;
74234;Laerm;62591;55.764;37.718;2023-11-19T06:46:30;47.93;41.91;59.85;;
74234;Laerm;62591;55.764;37.718;2023-11-19T06:48:59;49.48;41.59;61.20;;
74234;Laerm;62591;55.764;37.718;2023-11-19T06:51:28;48.27;40.83;56.80;;
74234;Laerm;62591;55.764;37.718;2023-11-19T06:53:58;51.17;41.13;78.16;;
74234;Laerm;62591;55.764;37.718;2023-11-19T06:56:27;49.83;42.57;58.70;;
74234;Laerm;62591;55.764;37.718;2023-11-19T06:58:56;48.62;41.50;56.77;;
74234;Laerm;62591;55.764;37.718;2023-11-19T07:01:27;49.11;41.57;68.31;;
74234;Laerm;62591;55.764;37.718;2023-11-19T07:03:56;48.94;43.85;61.04;;
74234;Laerm;62591;55.764;37.718;2023-11-19T07:06:25;47.55;42.79;61.90;;
74234;Laerm;62591;55.764;37.718;2023-11-19T07:08:57;50.84;39.65;75.90;;
74234;Laerm;62591;55.764;37.718;2023-11-19T07:11:25;47.85;39.30;57.23;;
74234;Laerm;62591;55.764;37.718;2023-11-19T07:13:54;49.14;40.46;57.95;;
74234;Laerm;62591;55.764;37.718;2023-11-19T07:16:23;48.89;42.74;60.28;;
74234;Laerm;62591;55.764;37.718;2023-11-19T07:18:53;48.18;41.11;61.36;;
74234;Laerm;62591;55.764;37.718;2023-11-19T07:21:22;48.72;42.01;56.92;;
74234;Laerm;62591;55.764;37.718;2023-11-19T07:23:52;48.43;41.36;57.65;;
74234;Laerm;62591;55.764;37.718;2023-11-19T07:26:21;48.84;41.17;57.65;;
74234;Laerm;62591;55.764;37.718;2023-11-19T07:28:50;49.06;40.61;61.64;;
74234;Laerm;62591;55.764;37.718;2023-11-19T07:31:19;48.70;39.25;58.44;;
74234;Laerm;62591;55.764;37.718;2023-11-19T07:33:48;47.32;40.12;60.17;;
74234;Laerm;62591;55.764;37.718;2023-11-19T07:36:18;49.15;40.37;58.41;;
74234;Laerm;62591;55.764;37.718;2023-11-19T07:38:46;50.24;40.26;60.02;;
74234;Laerm;62591;55.764;37.718;2023-11-19T07:41:15;49.13;41.17;61.50;;
74234;Laerm;62591;55.764;37.718;2023-11-19T07:43:44;49.50;40.17;62.99;;
74234;Laerm;62591;55.764;37.718;2023-11-19T07:46:14;49.74;40.20;59.42;;
74234;Laerm;62591;55.764;37.718;2023-11-19T07:48:43;46.49;39.70;56.62;;
74234;Laerm;62591;55.764;37.718;2023-11-19T07:51:11;48.94;39.37;59.39;;
74234;Laerm;62591;55.764;37.718;2023-11-19T07:53:42;48.77;39.45;65.00;;
74234;Laerm;62591;55.764;37.718;2023-11-19T07:56:10;48.34;40.13;65.93;;
74234;Laerm;62591;55.764;37.718;2023-11-19T07:58:39;52.58;38.58;63.49;;
74234;Laerm;62591;55.764;37.718;2023-11-19T08:01:11;52.83;41.97;61.57;;
74234;Laerm;62591;55.764;37.718;2023-11-19T08:03:40;47.71;39.71;57.85;;
74234;Laerm;62591;55.764;37.718;2023-11-19T08:06:25;47.64;39.69;54.90;;
74234;Laerm;62591;55.764;37.718;2023-11-19T08:08:55;51.73;42.39;68.15;;
74234;Laerm;62591;55.764;37.718;2023-11-19T08:11:24;48.61;39.71;60.13;;
74234;Laerm;62591;55.764;37.718;2023-11-19T08:13:52;47.03;40.25;58.46;;
74234;Laerm;62591;55.764;37.718;2023-11-19T08:16:22;48.35;39.84;57.66;;
74234;Laerm;62591;55.764;37.718;2023-11-19T08:18:51;48.42;39.84;56.90;;
74234;Laerm;62591;55.764;37.718;2023-11-19T08:21:19;47.59;39.74;59.18;;
74234;Laerm;62591;55.764;37.718;2023-11-19T08:23:50;49.41;40.39;60.37;;
74234;Laerm;62591;55.764;37.718;2023-11-19T08:26:20;48.79;39.55;58.60;;
74234;Laerm;62591;55.764;37.718;2023-11-19T08:28:49;49.05;40.17;59.11;;
74234;Laerm;62591;55.764;37.718;2023-11-19T08:31:19;48.46;39.63;71.99;;
74234;Laerm;62591;55.764;37.718;2023-11-19T08:33:48;51.12;39.33;72.80;;
74234;Laerm;62591;55.764;37.718;2023-11-19T08:36:18;48.41;40.00;57.05;;
74234;Laerm;62591;55.764;37.718;2023-11-19T08:38:46;47.74;39.44;61.16;;
74234;Laerm;62591;55.764;37.718;2023-11-19T08:41:20;49.26;38.36;64.21;;
74234;Laerm;62591;55.764;37.718;2023-11-19T08:43:49;49.65;40.52;58.62;;
74234;Laerm;62591;55.764;37.718;2023-11-19T08:46:19;48.76;41.59;72.50;;
74234;Laerm;62591;55.764;37.718;2023-11-19T08:48:47;49.64;42.49;64.68;;
74234;Laerm;62591;55.764;37.718;2023-11-19T08:51:17;46.04;39.50;55.30;;
74234;Laerm;62591;55.764;37.718;2023-11-19T08:53:46;49.87;42.24;62.36;;
74234;Laerm;62591;55.764;37.718;2023-11-19T08:56:15;50.10;39.98;58.83;;
74234;Laerm;62591;55.764;37.718;2023-11-19T08:58:45;48.61;39.48;57.87;;
74234;Laerm;62591;55.764;37.718;2023-11-19T09:01:42;48.51;39.93;63.40;;
74234;Laerm;62591;55.764;37.718;2023-11-19T09:04:11;48.59;39.08;57.12;;
74234;Laerm;62591;55.764;37.718;2023-11-19T09:06:43;48.22;40.16;54.31;;
74234;Laerm;62591;55.764;37.718;2023-11-19T09:09:13;49.94;40.20;57.77;;
74234;Laerm;62591;55.764;37.718;2023-11-19T09:11:41;48.75;40.84;55.83;;
74234;Laerm;62591;55.764;37.718;2023-11-19T09:14:12;48.11;40.87;57.37;;
74234;Laerm;62591;55.764;37.718;2023-11-19T09:16:42;48.94;38.54;71.91;;
74234;Laerm;62591;55.764;37.718;2023-11-19T09:19:10;46.21;38.88;70.06;;
74234;Laerm;62591;55.764;37.718;2023-11-19T09:21:40;46.65;38.97;59.26;;
74234;Laerm;62591;55.764;37.718;2023-11-19T09:24:09;48.91;39.87;62.33;;
74234;Laerm;62591;55.764;37.718;2023-11-19T09:26:41;48.26;41.42;56.57;;
74234;Laerm;62591;55.764;37.718;2023-11-19T09:29:11;48.22;40.19;55.78;;
74234;Laerm;62591;55.764;37.718;2023-11-19T09:31:41;48.77;41.40;66.10;;
74234;Laerm;62591;55.764;37.718;2023-11-19T09:34:10;49.82;41.72;57.02;;
74234;Laerm;62591;55.764;37.718;2023-11-19T09:36:38;49.66;42.13;57.42;;
74234;Laerm;62591;55.764;37.718;2023-11-19T09:39:11;50.07;41.15;68.98;;
74234;Laerm;62591;55.764;37.718;2023-11-19T09:41:42;49.38;40.62;63.30;;
74234;Laerm;62591;55.764;37.718;2023-11-19T09:44:14;48.20;40.80;54.02;;
74234;Laerm;62591;55.764;37.718;2023-11-19T09:46:46;48.78;41.71;64.41;;
74234;Laerm;62591;55.764;37.718;2023-11-19T09:49:17;50.00;41.09;69.82;;
74234;Laerm;62591;55.764;37.718;2023-11-19T09:52:03;48.24;41.22;56.10;;
74234;Laerm;62591;55.764;37.718;2023-11-19T09:54:32;48.92;40.70;63.43;;
74234;Laerm;62591;55.764;37.718;2023-11-19T09:57:02;48.96;41.04;66.12;;
74234;Laerm;62591;55.764;37.718;2023-11-19T09:59:33;49.92;41.52;71.03;;
74234;Laerm;62591;55.764;37.718;2023-11-19T10:02:02;49.12;41.27;64.07;;
74234;Laerm;62591;55.764;37.718;2023-11-19T10:04:35;51.36;40.60;69.93;;
74234;Laerm;62591;55.764;37.718;2023-11-19T10:07:07;48.74;41.08;64.27;;
74234;Laerm;62591;55.764;37.718;2023-11-19T10:09:35;47.98;40.69;62.31;;
74234;Laerm;62591;55.764;37.718;2023-11-19T10:12:05;50.79;41.21;62.48;;
74234;Laerm;62591;55.764;37.718;2023-11-19T10:14:37;48.25;40.41;57.68;;
74234;Laerm;62591;55.764;37.718;2023-11-19T10:17:07;46.78;41.03;55.43;;
74234;Laerm;62591;55.764;37.718;2023-11-19T10:19:36;50.22;42.03;66.47;;
74234;Laerm;62591;55.764;37.718;2023-11-19T10:22:06;48.52;41.89;61.03;;
74234;Laerm;62591;55.764;37.718;2023-11-19T10:24:35;49.37;41.43;57.65;;
74234;Laerm;62591;55.764;37.718;2023-11-19T10:27:09;48.37;41.26;62.46;;
74234;Laerm;62591;55.764;37.718;2023-11-19T10:29:39;49.24;41.00;64.74;;
74234;Laerm;62591;55.764;37.718;2023-11-19T10:32:08;48.87;40.08;65.26;;
74234;Laerm;62591;55.764;37.718;2023-11-19T10:35:04;52.12;40.84;69.33;;
74234;Laerm;62591;55.764;37.718;2023-11-19T10:37:34;47.68;40.88;55.24;;
74234;Laerm;62591;55.764;37.718;2023-11-19T10:40:06;49.60;40.62;57.84;;
74234;Laerm;62591;55.764;37.718;2023-11-19T10:42:38;48.22;42.36;57.23;;
74234;Laerm;62591;55.764;37.718;2023-11-19T10:45:21;50.06;42.44;58.98;;
74234;Laerm;62591;55.764;37.718;2023-11-19T10:47:52;49.79;39.87;74.80;;
74234;Laerm;62591;55.764;37.718;2023-11-19T10:50:21;51.54;41.76;68.05;;
74234;Laerm;62591;55.764;37.718;2023-11-19T10:52:53;54.90;42.86;76.04;;
74234;Laerm;62591;55.764;37.718;2023-11-19T10:55:27;50.65;41.44;67.46;;
74234;Laerm;62591;55.764;37.718;2023-11-19T10:57:59;48.51;39.69;62.65;;
74234;Laerm;62591;55.764;37.718;2023-11-19T11:00:34;47.74;39.99;58.19;;
74234;Laerm;62591;55.764;37.718;2023-11-19T11:03:10;48.55;39.15;61.57;;
74234;Laerm;62591;55.764;37.718;2023-11-19T11:05:41;50.23;39.00;65.20;;
74234;Laerm;62591;55.764;37.718;2023-11-19T11:08:12;49.10;39.64;57.07;;
74234;Laerm;62591;55.764;37.718;2023-11-19T11:10:43;48.00;39.36;57.94;;
74234;Laerm;62591;55.764;37.718;2023-11-19T11:13:16;52.01;41.38;68.34;;
74234;Laerm;62591;55.764;37.718;2023-11-19T11:15:47;50.23;41.07;64.85;;
74234;Laerm;62591;55.764;37.718;2023-11-19T11:18:17;49.05;40.84;57.27;;
74234;Laerm;62591;55.764;37.718;2023-11-19T11:20:46;48.18;41.28;57.94;;
74234;Laerm;62591;55.764;37.718;2023-11-19T11:23:42;50.46;40.52;65.49;;
74234;Laerm;62591;55.764;37.718;2023-11-19T11:26:29;48.29;38.97;61.65;;
74234;Laerm;62591;55.764;37.718;2023-11-19T11:29:04;48.26;40.42;58.37;;
74234;Laerm;62591;55.764;37.718;2023-11-19T11:31:42;50.93;38.84;75.68;;
74234;Laerm;62591;55.764;37.718;2023-11-19T11:34:47;46.76;39.23;53.85;;
74234;Laerm;62591;55.764;37.718;2023-11-19T11:37:28;47.68;39.43;68.83;;
74234;Laerm;62591;55.764;37.718;2023-11-19T11:39:58;48.08;41.28;55.70;;
74234;Laerm;62591;55.764;37.718;2023-11-19T11:42:36;48.41;39.89;67.65;;
74234;Laerm;62591;55.764;37.718;2023-11-19T11:45:06;48.16;39.49;58.66;;
74234;Laerm;62591;55.764;37.718;2023-11-19T11:48:08;46.62;38.69;54.49;;
74234;Laerm;62591;55.764;37.718;2023-11-19T11:51:03;48.52;41.00;59.42;;
74234;Laerm;62591;55.764;37.718;2023-11-19T11:53:35;48.94;41.01;55.91;;
74234;Laerm;62591;55.764;37.718;2023-11-19T11:56:05;48.80;40.81;61.38;;
74234;Laerm;62591;55.764;37.718;2023-11-19T11:58:37;49.72;42.81;63.10;;
74234;Laerm;62591;55.764;37.718;2023-11-19T12:01:15;48.06;38.86;60.65;;
74234;Laerm;62591;55.764;37.718;2023-11-19T12:03:50;49.05;40.50;63.12;;
74234;Laerm;62591;55.764;37.718;2023-11-19T12:06:21;46.56;38.99;55.12;;
74234;Laerm;62591;55.764;37.718;2023-11-19T12:08:50;50.06;39.68;72.01;;
74234;Laerm;62591;55.764;37.718;2023-11-19T12:11:20;48.98;41.58;56.46;;
74234;Laerm;62591;55.764;37.718;2023-11-19T12:13:55;46.86;40.20;56.75;;
74234;Laerm;62591;55.764;37.718;2023-11-19T12:16:27;47.68;39.30;56.87;;
74234;Laerm;62591;55.764;37.718;2023-11-19T12:19:02;48.43;39.00;56.75;;
74234;Laerm;62591;55.764;37.718;2023-11-19T12:21:33;48.43;38.68;59.86;;
74234;Laerm;62591;55.764;37.718;2023-11-19T12:24:06;48.43;40.07;58.12;;
74234;Laerm;62591;55.764;37.718;2023-11-19T12:26:37;48.07;41.05;57.66;;
74234;Laerm;62591;55.764;37.718;2023-11-19T12:29:06;49.48;40.91;59.90;;
74234;Laerm;62591;55.764;37.718;2023-11-19T12:31:37;49.35;43.75;60.52;;
74234;Laerm;62591;55.764;37.718;2023-11-19T12:34:09;47.09;39.45;56.47;;
74234;Laerm;62591;55.764;37.718;2023-11-19T12:36:40;49.56;41.57;63.85;;
74234;Laerm;62591;55.764;37.718;2023-11-19T12:39:12;48.97;41.50;60.01;;
74234;Laerm;62591;55.764;37.718;2023-11-19T12:41:51;48.56;41.64;59.41;;
74234;Laerm;62591;55.764;37.718;2023-11-19T12:44:21;48.02;40.97;57.62;;
74234;Laerm;62591;55.764;37.718;2023-11-19T12:47:00;48.24;42.18;54.64;;
74234;Laerm;62591;55.764;37.718;2023-11-19T12:49:32;48.55;41.31;62.30;;
74234;Laerm;62591;55.764;37.718;2023-11-19T12:52:01;47.89;40.38;54.50;;
74234;Laerm;62591;55.764;37.718;2023-11-19T12:54:33;49.93;40.04;61.02;;
74234;Laerm;62591;55.764;37.718;2023-11-19T12:57:02;49.86;41.97;63.75;;
74234;Laerm;62591;55.764;37.718;2023-11-19T12:59:32;48.44;42.86;55.16;;
74234;Laerm;62591;55.764;37.718;2023-11-19T13:02:01;50.36;43.22;66.10;;
74234;Laerm;62591;55.764;37.718;2023-11-19T13:04:34;47.62;42.19;52.75;;
74234;Laerm;62591;55.764;37.718;2023-11-19T13:07:03;47.78;40.75;56.03;;
74234;Laerm;62591;55.764;37.718;2023-11-19T13:09:33;48.15;42.09;57.41;;
74234;Laerm;62591;55.764;37.718;2023-11-19T13:12:12;48.97;43.24;57.44;;
74234;Laerm;62591;55.764;37.718;2023-11-19T13:14:42;48.28;42.61;56.23;;
74234;Laerm;62591;55.764;37.718;2023-11-19T13:17:13;48.97;42.66;61.14;;
74234;Laerm;62591;55.764;37.718;2023-11-19T13:19:47;49.34;42.73;57.52;;
74234;Laerm;62591;55.764;37.718;2023-11-19T13:22:16;51.32;43.02;77.52;;
74234;Laerm;62591;55.764;37.718;2023-11-19T13:24:44;48.29;43.81;55.92;;
74234;Laerm;62591;55.764;37.718;2023-11-19T13:27:13;50.23;43.61;66.07;;
74234;Laerm;62591;55.764;37.718;2023-11-19T13:29:42;47.57;42.28;62.69;;
74234;Laerm;62591;55.764;37.718;2023-11-19T13:32:10;49.95;42.74;60.61;;
74234;Laerm;62591;55.764;37.718;2023-11-19T13:34:39;48.91;40.84;66.62;;
74234;Laerm;62591;55.764;37.718;2023-11-19T13:37:09;47.28;41.45;57.50;;
74234;Laerm;62591;55.764;37.718;2023-11-19T13:39:41;48.97;42.30;58.06;;
74234;Laerm;62591;55.764;37.718;2023-11-19T13:42:11;48.06;41.73;56.68;;
74234;Laerm;62591;55.764;37.718;2023-11-19T13:44:40;49.10;41.59;59.13;;
74234;Laerm;62591;55.764;37.718;2023-11-19T13:47:09;47.51;42.56;55.53;;
74234;Laerm;62591;55.764;37.718;2023-11-19T13:49:41;47.63;41.94;56.91;;
74234;Laerm;62591;55.764;37.718;2023-11-19T13:52:12;50.13;44.71;61.06;;